createdAt,value
2017-07-08T00:00:10.609Z,1008.15
2017-07-08T00:01:20.877Z,1008.13
2017-07-08T00:02:31.426Z,1008.17
2017-07-08T00:03:41.707Z,1008.12
2017-07-08T00:04:51.985Z,1008.12
2017-07-08T00:06:02.280Z,1008.1
2017-07-08T00:07:12.530Z,1008.08
2017-07-08T00:08:23.074Z,1008.11
2017-07-08T00:09:33.093Z,1008.13
2017-07-08T00:10:43.047Z,1008.12
2017-07-08T00:11:52.679Z,1008.13
2017-07-08T00:13:02.968Z,1008.11
2017-07-08T00:14:13.174Z,1008.05
2017-07-08T00:15:23.456Z,1008
2017-07-08T00:16:33.733Z,1007.99
2017-07-08T00:17:43.391Z,1007.98
2017-07-08T00:18:53.665Z,1008
2017-07-08T00:20:04.180Z,1007.99
2017-07-08T00:21:14.460Z,1008.01
2017-07-08T00:22:24.412Z,1008.01
2017-07-08T00:23:34.664Z,1008
2017-07-08T00:24:44.937Z,1008.01
2017-07-08T00:25:55.155Z,1007.99
2017-07-08T00:27:05.443Z,1008.08
2017-07-08T00:28:15.728Z,1008.11
2017-07-08T00:29:26.021Z,1008.16
2017-07-08T00:30:36.340Z,1008.21
2017-07-08T00:31:46.861Z,1008.2
2017-07-08T00:32:57.127Z,1008.18
2017-07-08T00:34:07.106Z,1008.21
2017-07-08T00:35:16.432Z,1008.22
2017-07-08T00:36:26.702Z,1008.18
2017-07-08T00:37:36.901Z,1008.17
2017-07-08T00:38:47.161Z,1008.18
2017-07-08T00:39:57.124Z,1008.17
2017-07-08T00:41:07.397Z,1008.17
2017-07-08T00:42:17.344Z,1008.16
2017-07-08T00:43:27.919Z,1008.17
2017-07-08T00:44:37.889Z,1008.15
2017-07-08T00:45:48.159Z,1008.14
2017-07-08T00:46:57.803Z,1008.15
2017-07-08T00:48:08.059Z,1008.14
2017-07-08T00:49:18.310Z,1008.13
2017-07-08T00:50:28.588Z,1008.13
2017-07-08T00:51:38.549Z,1008.09
2017-07-08T00:52:48.493Z,1008.08
2017-07-08T00:53:58.755Z,1008.03
2017-07-08T00:55:09.324Z,1008.01
2017-07-08T00:56:19.589Z,1008.02
2017-07-08T00:57:29.864Z,1007.98
2017-07-08T00:58:40.126Z,1008.02
2017-07-08T00:59:50.085Z,1008
2017-07-08T01:01:00.293Z,1008
2017-07-08T01:02:10.255Z,1008
2017-07-08T01:03:20.518Z,1008.01
2017-07-08T01:04:30.773Z,1008.01
2017-07-08T01:05:41.028Z,1008.02
2017-07-08T01:06:51.591Z,1008.04
2017-07-08T01:08:01.859Z,1008.01
2017-07-08T01:09:11.488Z,1008.07
2017-07-08T01:10:21.764Z,1008.04
2017-07-08T01:11:32.049Z,1008.05
2017-07-08T01:12:42.615Z,1008.02
2017-07-08T01:13:52.943Z,1008.04
2017-07-08T01:15:03.199Z,1008.04
2017-07-08T01:16:13.466Z,1008.06
2017-07-08T01:17:23.738Z,1008.04
2017-07-08T01:18:33.639Z,1008.04
2017-07-08T01:19:43.907Z,1008.01
2017-07-08T01:20:54.186Z,1008.03
2017-07-08T01:22:04.463Z,1008.04
2017-07-08T01:23:14.716Z,1007.99
2017-07-08T01:24:25.271Z,1007.96
2017-07-08T01:25:35.534Z,1007.96
2017-07-08T01:26:45.170Z,1007.92
2017-07-08T01:27:55.429Z,1007.96
2017-07-08T01:29:05.692Z,1007.95
2017-07-08T01:30:16.264Z,1007.94
2017-07-08T01:31:25.904Z,1007.93
2017-07-08T01:32:36.149Z,1007.94
2017-07-08T01:33:46.096Z,1007.9
2017-07-08T01:34:56.375Z,1007.94
2017-07-08T01:36:06.954Z,1007.94
2017-07-08T01:37:17.207Z,1007.94
2017-07-08T01:38:26.827Z,1007.94
2017-07-08T01:39:37.103Z,1007.95
2017-07-08T01:40:47.355Z,1007.99
2017-07-08T01:41:57.609Z,1008
2017-07-08T01:43:07.874Z,1007.98
2017-07-08T01:44:18.138Z,1007.98
2017-07-08T01:45:28.413Z,1007.95
2017-07-08T01:46:38.685Z,1007.95
2017-07-08T01:47:48.936Z,1007.94
2017-07-08T01:48:59.204Z,1007.95
2017-07-08T01:50:09.170Z,1007.95
2017-07-08T01:51:19.135Z,1007.94
2017-07-08T01:52:29.385Z,1007.96
2017-07-08T01:53:39.641Z,1007.96
2017-07-08T01:54:49.610Z,1007.92
2017-07-08T01:55:59.885Z,1007.98
2017-07-08T01:57:10.156Z,1007.91
2017-07-08T01:58:20.434Z,1007.93
2017-07-08T01:59:31.003Z,1007.88
2017-07-08T02:00:41.271Z,1007.9
2017-07-08T02:01:51.539Z,1007.92
2017-07-08T02:03:01.815Z,1007.92
2017-07-08T02:04:11.460Z,1007.92
2017-07-08T02:05:21.666Z,1007.95
2017-07-08T02:06:31.626Z,1007.92
2017-07-08T02:07:41.611Z,1007.92
2017-07-08T02:08:51.877Z,1007.9
2017-07-08T02:10:01.826Z,1007.96
2017-07-08T02:11:12.401Z,1007.97
2017-07-08T02:12:22.692Z,1007.99
2017-07-08T02:13:32.946Z,1007.97
2017-07-08T02:14:42.909Z,1007.94
2017-07-08T02:15:53.176Z,1007.93
2017-07-08T02:17:03.757Z,1007.9
2017-07-08T02:18:14.015Z,1007.91
2017-07-08T02:19:24.304Z,1007.87
2017-07-08T02:20:34.567Z,1007.94
2017-07-08T02:21:44.837Z,1007.97
2017-07-08T02:22:55.409Z,1007.98
2017-07-08T02:24:05.659Z,1007.95
2017-07-08T02:25:15.930Z,1007.97
2017-07-08T02:26:25.899Z,1007.98
2017-07-08T02:27:35.854Z,1007.96
2017-07-08T02:28:46.360Z,1007.98
2017-07-08T02:29:56.641Z,1008
2017-07-08T02:31:06.906Z,1007.96
2017-07-08T02:32:17.198Z,1007.97
2017-07-08T02:33:27.442Z,1007.96
2017-07-08T02:34:37.954Z,1007.92
2017-07-08T02:35:47.601Z,1008.01
2017-07-08T02:36:57.864Z,1007.98
2017-07-08T02:38:08.050Z,1007.95
2017-07-08T02:39:18.309Z,1007.99
2017-07-08T02:40:28.892Z,1008.06
2017-07-08T02:41:39.164Z,1008.01
2017-07-08T02:42:49.423Z,1008
2017-07-08T02:43:59.698Z,1008.01
2017-07-08T02:45:09.975Z,1008.03
2017-07-08T02:46:20.541Z,1008.01
2017-07-08T02:47:30.496Z,1008
2017-07-08T02:48:40.764Z,1007.99
2017-07-08T02:49:51.026Z,1008.01
2017-07-08T02:51:00.976Z,1008
2017-07-08T02:52:11.559Z,1008.06
2017-07-08T02:53:21.833Z,1008.05
2017-07-08T02:54:32.107Z,1008.04
2017-07-08T02:55:42.379Z,1008.06
2017-07-08T02:56:52.670Z,1008.07
2017-07-08T02:58:03.234Z,1008.09
2017-07-08T02:59:13.489Z,1008.08
2017-07-08T03:00:23.775Z,1008.09
2017-07-08T03:01:34.077Z,1008.04
2017-07-08T03:02:44.352Z,1008
2017-07-08T03:03:54.613Z,1007.98
2017-07-08T03:05:04.251Z,1007.99
2017-07-08T03:06:14.523Z,1007.98
2017-07-08T03:07:24.806Z,1007.98
2017-07-08T03:08:35.065Z,1007.97
2017-07-08T03:09:45.577Z,1008.02
2017-07-08T03:10:55.544Z,1008.07
2017-07-08T03:12:05.806Z,1008.09
2017-07-08T03:13:15.757Z,1008.13
2017-07-08T03:14:26.017Z,1008.07
2017-07-08T03:15:36.219Z,1008.1
2017-07-08T03:16:46.500Z,1008.08
2017-07-08T03:17:56.457Z,1008.11
2017-07-08T03:19:06.726Z,1008.11
2017-07-08T03:20:16.705Z,1008.1
2017-07-08T03:21:27.286Z,1008.13
2017-07-08T03:22:37.563Z,1008.13
2017-07-08T03:23:47.196Z,1008.15
2017-07-08T03:24:57.469Z,1008.17
2017-07-08T03:26:07.407Z,1008.18
2017-07-08T03:27:17.619Z,1008.19
2017-07-08T03:28:27.894Z,1008.16
2017-07-08T03:29:38.162Z,1008.17
2017-07-08T03:30:48.425Z,1008.15
2017-07-08T03:31:58.733Z,1008.17
2017-07-08T03:33:09.285Z,1008.22
2017-07-08T03:34:19.562Z,1008.25
2017-07-08T03:35:29.828Z,1008.23
2017-07-08T03:36:40.085Z,1008.23
2017-07-08T03:37:50.349Z,1008.22
2017-07-08T03:39:00.686Z,1008.21
2017-07-08T03:40:10.948Z,1008.23
2017-07-08T03:41:20.894Z,1008.17
2017-07-08T03:42:30.840Z,1008.2
2017-07-08T03:43:41.108Z,1008.19
2017-07-08T03:44:51.629Z,1008.22
2017-07-08T03:46:01.899Z,1008.2
2017-07-08T03:47:12.170Z,1008.23
2017-07-08T03:48:22.441Z,1008.25
2017-07-08T03:49:32.398Z,1008.28
2017-07-08T03:50:42.980Z,1008.31
2017-07-08T03:51:53.245Z,1008.25
2017-07-08T03:53:03.187Z,1008.25
2017-07-08T03:54:13.147Z,1008.27
2017-07-08T03:55:23.410Z,1008.24
2017-07-08T03:56:33.985Z,1008.23
2017-07-08T03:57:44.251Z,1008.2
2017-07-08T03:58:54.505Z,1008.2
2017-07-08T04:00:04.784Z,1008.17
2017-07-08T04:01:15.051Z,1008.13
2017-07-08T04:02:25.607Z,1008.1
2017-07-08T04:03:35.564Z,1008.09
2017-07-08T04:04:45.836Z,1008.06
2017-07-08T04:05:56.103Z,1008.06
2017-07-08T04:07:06.382Z,1008.05
2017-07-08T04:08:16.901Z,1008.06
2017-07-08T04:09:27.179Z,1008.04
2017-07-08T04:10:37.457Z,1008
2017-07-08T04:11:47.405Z,1007.98
2017-07-08T04:12:57.356Z,1008
2017-07-08T04:14:07.268Z,1008
2017-07-08T04:15:17.541Z,1008
2017-07-08T04:16:27.171Z,1008.06
2017-07-08T04:17:37.425Z,1008.04
2017-07-08T04:18:47.446Z,1008.03
2017-07-08T04:19:57.376Z,1008.01
2017-07-08T04:21:07.647Z,1007.98
2017-07-08T04:22:17.911Z,1008.05
2017-07-08T04:23:28.196Z,1008.02
2017-07-08T04:24:38.466Z,1008.03
2017-07-08T04:25:49.097Z,1008.04
2017-07-08T04:26:59.368Z,1008.03
2017-07-08T04:28:09.339Z,1008.03
2017-07-08T04:29:19.590Z,1008.11
2017-07-08T04:30:29.609Z,1008.1
2017-07-08T04:31:40.180Z,1008.11
2017-07-08T04:32:50.138Z,1008.12
2017-07-08T04:34:00.085Z,1008.1
2017-07-08T04:35:10.384Z,1008.15
2017-07-08T04:36:20.656Z,1008.13
2017-07-08T04:37:31.230Z,1008.1
2017-07-08T04:38:40.909Z,1008.08
2017-07-08T04:39:51.184Z,1008.09
2017-07-08T04:41:01.464Z,1008.08
2017-07-08T04:42:11.745Z,1008.08
2017-07-08T04:43:22.262Z,1008.16
2017-07-08T04:44:31.905Z,1008.11
2017-07-08T04:45:42.164Z,1008.19
2017-07-08T04:46:52.440Z,1008.17
2017-07-08T04:48:02.712Z,1008.17
2017-07-08T04:49:13.229Z,1008.21
2017-07-08T04:50:23.509Z,1008.2
2017-07-08T04:51:33.786Z,1008.27
2017-07-08T04:52:43.746Z,1008.25
2017-07-08T04:53:54.008Z,1008.23
2017-07-08T04:55:04.255Z,1008.23
2017-07-08T04:56:14.545Z,1008.25
2017-07-08T04:57:24.811Z,1008.23
2017-07-08T04:58:34.765Z,1008.27
2017-07-08T04:59:45.036Z,1008.27
2017-07-08T05:00:55.240Z,1008.28
2017-07-08T05:02:05.204Z,1008.24
2017-07-08T05:03:15.464Z,1008.24
2017-07-08T05:04:26.219Z,1008.28
2017-07-08T05:05:36.167Z,1008.25
2017-07-08T05:06:46.059Z,1008.32
2017-07-08T05:07:56.010Z,1008.28
2017-07-08T05:09:06.266Z,1008.27
2017-07-08T05:10:16.523Z,1008.29
2017-07-08T05:11:26.477Z,1008.28
2017-07-08T05:12:37.001Z,1008.22
2017-07-08T05:13:47.274Z,1008.21
2017-07-08T05:14:56.921Z,1008.24
2017-07-08T05:16:07.201Z,1008.18
2017-07-08T05:17:17.536Z,1008.19
2017-07-08T05:18:28.079Z,1008.17
2017-07-08T05:19:38.035Z,1008.24
2017-07-08T05:20:48.341Z,1008.2
2017-07-08T05:21:58.300Z,1008.21
2017-07-08T05:23:08.576Z,1008.21
2017-07-08T05:24:18.761Z,1008.21
2017-07-08T05:25:29.021Z,1008.25
2017-07-08T05:26:39.278Z,1008.29
2017-07-08T05:27:49.544Z,1008.28
2017-07-08T05:28:59.545Z,1008.25
2017-07-08T05:30:10.071Z,1008.24
2017-07-08T05:31:20.404Z,1008.14
2017-07-08T05:32:30.674Z,1008.16
2017-07-08T05:33:40.953Z,1008.18
2017-07-08T05:34:51.210Z,1008.16
2017-07-08T05:36:01.462Z,1008.12
2017-07-08T05:37:11.744Z,1008.14
2017-07-08T05:38:22.006Z,1008.11
2017-07-08T05:39:32.277Z,1008.09
2017-07-08T05:40:42.554Z,1008.14
2017-07-08T05:41:52.758Z,1008.13
2017-07-08T05:43:03.044Z,1008.15
2017-07-08T05:44:13.319Z,1008.15
2017-07-08T05:45:23.583Z,1008.11
2017-07-08T05:46:33.852Z,1008.12
2017-07-08T05:47:44.425Z,1008.06
2017-07-08T05:48:54.698Z,1008.09
2017-07-08T05:50:04.988Z,1008.08
2017-07-08T05:51:15.263Z,1008.06
2017-07-08T05:52:25.516Z,1008.05
2017-07-08T05:53:36.032Z,1008.09
2017-07-08T05:54:45.993Z,1008.07
2017-07-08T05:55:55.947Z,1008.06
2017-07-08T05:57:06.217Z,1008.12
2017-07-08T05:58:16.156Z,1008.12
2017-07-08T05:59:26.037Z,1008.11
2017-07-08T06:00:36.317Z,1008.1
2017-07-08T06:01:46.580Z,1008.16
2017-07-08T06:02:56.541Z,1008.13
2017-07-08T06:04:06.817Z,1008.1
2017-07-08T06:05:17.327Z,1008.1
2017-07-08T06:06:27.598Z,1008.13
2017-07-08T06:07:37.867Z,1008.18
2017-07-08T06:08:48.135Z,1008.25
2017-07-08T06:09:58.402Z,1008.25
2017-07-08T06:11:08.609Z,1008.27
2017-07-08T06:12:18.923Z,1008.27
2017-07-08T06:13:28.881Z,1008.28
2017-07-08T06:14:39.185Z,1008.25
2017-07-08T06:15:49.147Z,1008.26
2017-07-08T06:16:59.665Z,1008.34
2017-07-08T06:18:09.930Z,1008.27
2017-07-08T06:19:20.207Z,1008.27
2017-07-08T06:20:30.470Z,1008.31
2017-07-08T06:21:40.428Z,1008.28
2017-07-08T06:22:50.954Z,1008.29
2017-07-08T06:24:00.896Z,1008.25
2017-07-08T06:25:11.147Z,1008.26
2017-07-08T06:26:21.101Z,1008.29
2017-07-08T06:27:31.367Z,1008.39
2017-07-08T06:28:41.874Z,1008.39
2017-07-08T06:29:52.139Z,1008.41
2017-07-08T06:31:02.096Z,1008.48
2017-07-08T06:32:12.367Z,1008.47
2017-07-08T06:33:22.313Z,1008.5
2017-07-08T06:34:32.211Z,1008.55
2017-07-08T06:35:42.493Z,1008.59
2017-07-08T06:36:52.765Z,1008.67
2017-07-08T06:38:03.035Z,1008.69
2017-07-08T06:39:12.355Z,1008.67
2017-07-08T06:40:22.961Z,1008.66
2017-07-08T06:41:32.911Z,1008.52
2017-07-08T06:42:42.974Z,1008.51
2017-07-08T06:43:53.270Z,1008.54
2017-07-08T06:45:03.536Z,1008.62
2017-07-08T06:46:14.060Z,1008.61
2017-07-08T06:47:24.331Z,1008.59
2017-07-08T06:48:34.593Z,1008.54
2017-07-08T06:49:44.866Z,1008.57
2017-07-08T06:50:55.154Z,1008.57
2017-07-08T06:52:05.354Z,1008.56
2017-07-08T06:53:14.990Z,1008.66
2017-07-08T06:54:25.262Z,1008.58
2017-07-08T06:55:35.518Z,1008.65
2017-07-08T06:56:45.793Z,1008.58
2017-07-08T06:57:56.005Z,1008.58
2017-07-08T06:59:06.277Z,1008.65
2017-07-08T07:00:16.232Z,1008.67
2017-07-08T07:01:26.189Z,1008.69
2017-07-08T07:02:36.463Z,1008.69
2017-07-08T07:03:46.971Z,1008.7
2017-07-08T07:04:57.245Z,1008.68
2017-07-08T07:06:07.566Z,1008.72
2017-07-08T07:07:17.842Z,1008.62
2017-07-08T07:08:28.087Z,1008.71
2017-07-08T07:09:38.308Z,1008.71
2017-07-08T07:10:48.578Z,1008.78
2017-07-08T07:11:58.852Z,1008.69
2017-07-08T07:13:09.122Z,1008.78
2017-07-08T07:14:19.419Z,1008.76
2017-07-08T07:15:29.930Z,1008.74
2017-07-08T07:16:40.226Z,1008.78
2017-07-08T07:17:50.182Z,1008.73
2017-07-08T07:19:00.449Z,1008.78
2017-07-08T07:20:10.715Z,1008.82
2017-07-08T07:21:21.258Z,1008.76
2017-07-08T07:22:31.524Z,1008.76
2017-07-08T07:23:41.799Z,1008.77
2017-07-08T07:24:51.742Z,1008.76
2017-07-08T07:26:01.692Z,1008.79
2017-07-08T07:27:11.903Z,1008.91
2017-07-08T07:28:21.844Z,1008.86
2017-07-08T07:29:32.160Z,1008.91
2017-07-08T07:30:42.429Z,1008.92
2017-07-08T07:31:52.406Z,1008.88
2017-07-08T07:33:02.940Z,1008.86
2017-07-08T07:34:12.903Z,1008.91
2017-07-08T07:35:23.183Z,1008.77
2017-07-08T07:36:33.454Z,1008.77
2017-07-08T07:37:43.711Z,1008.84
2017-07-08T07:38:53.901Z,1008.85
2017-07-08T07:40:04.173Z,1008.82
2017-07-08T07:41:14.451Z,1008.86
2017-07-08T07:42:24.397Z,1008.91
2017-07-08T07:43:34.703Z,1008.96
2017-07-08T07:44:45.237Z,1008.83
2017-07-08T07:45:55.211Z,1008.92
2017-07-08T07:47:05.487Z,1008.92
2017-07-08T07:48:15.750Z,1008.97
2017-07-08T07:49:26.018Z,1008.97
2017-07-08T07:50:36.557Z,1008.94
2017-07-08T07:51:46.839Z,1008.87
2017-07-08T07:52:57.103Z,1008.87
2017-07-08T07:54:07.389Z,1008.91
2017-07-08T07:55:17.676Z,1008.88
2017-07-08T07:56:28.213Z,1008.98
2017-07-08T07:57:38.179Z,1008.98
2017-07-08T07:58:48.135Z,1009.01
2017-07-08T07:59:58.391Z,1009.03
2017-07-08T08:01:08.347Z,1008.98
2017-07-08T08:02:18.592Z,1009.02
2017-07-08T08:03:28.881Z,1008.97
2017-07-08T08:04:39.152Z,1008.99
2017-07-08T08:05:49.435Z,1008.98
2017-07-08T08:06:59.083Z,1009.01
2017-07-08T08:08:09.608Z,1008.98
2017-07-08T08:09:19.567Z,1009.06
2017-07-08T08:10:29.841Z,1009.03
2017-07-08T08:11:40.111Z,1008.96
2017-07-08T08:12:50.412Z,1009.07
2017-07-08T08:14:00.993Z,1009.05
2017-07-08T08:15:10.945Z,1009.11
2017-07-08T08:16:20.917Z,1009.13
2017-07-08T08:17:30.887Z,1009.14
2017-07-08T08:18:41.152Z,1009.16
2017-07-08T08:19:51.671Z,1009.17
2017-07-08T08:21:01.942Z,1009.26
2017-07-08T08:22:12.213Z,1009.25
2017-07-08T08:23:22.468Z,1009.25
2017-07-08T08:24:32.734Z,1009.37
2017-07-08T08:25:43.237Z,1009.39
2017-07-08T08:26:53.501Z,1009.27
2017-07-08T08:28:03.772Z,1009.37
2017-07-08T08:29:14.045Z,1009.27
2017-07-08T08:30:23.995Z,1009.38
2017-07-08T08:31:34.515Z,1009.38
2017-07-08T08:32:44.809Z,1009.47
2017-07-08T08:33:54.752Z,1009.52
2017-07-08T08:35:05.006Z,1009.49
2017-07-08T08:36:14.638Z,1009.47
2017-07-08T08:37:24.855Z,1009.57
2017-07-08T08:38:35.122Z,1009.58
2017-07-08T08:39:45.059Z,1009.55
2017-07-08T08:40:55.338Z,1009.59
2017-07-08T08:42:05.604Z,1009.47
2017-07-08T08:43:16.100Z,1009.51
2017-07-08T08:44:25.745Z,1009.52
2017-07-08T08:45:35.728Z,1009.5
2017-07-08T08:46:46.007Z,1009.51
2017-07-08T08:47:56.285Z,1009.58
2017-07-08T08:49:06.175Z,1009.58
2017-07-08T08:50:16.438Z,1009.53
2017-07-08T08:51:26.406Z,1009.55
2017-07-08T08:52:36.399Z,1009.52
2017-07-08T08:53:46.363Z,1009.6
2017-07-08T08:54:56.574Z,1009.55
2017-07-08T08:56:06.844Z,1009.66
2017-07-08T08:57:17.125Z,1009.63
2017-07-08T08:58:27.392Z,1009.69
2017-07-08T08:59:37.651Z,1009.61
2017-07-08T09:00:48.182Z,1009.69
2017-07-08T09:01:58.131Z,1009.67
2017-07-08T09:03:08.105Z,1009.77
2017-07-08T09:04:18.373Z,1009.77
2017-07-08T09:05:28.642Z,1009.73
2017-07-08T09:06:39.218Z,1009.82
2017-07-08T09:07:49.515Z,1009.8
2017-07-08T09:08:59.800Z,1009.81
2017-07-08T09:10:10.086Z,1009.82
2017-07-08T09:11:20.352Z,1009.96
2017-07-08T09:12:30.868Z,1009.86
2017-07-08T09:13:40.825Z,1009.92
2017-07-08T09:14:51.111Z,1009.99
2017-07-08T09:16:01.384Z,1010.1
2017-07-08T09:17:11.668Z,1009.8
2017-07-08T09:18:22.236Z,1009.9
2017-07-08T09:19:32.192Z,1009.83
2017-07-08T09:20:42.476Z,1009.85
2017-07-08T09:21:52.429Z,1009.88
2017-07-08T09:23:02.705Z,1009.94
2017-07-08T09:24:12.594Z,1009.88
2017-07-08T09:25:22.562Z,1009.92
2017-07-08T09:26:32.841Z,1009.98
2017-07-08T09:27:42.846Z,1009.9
2017-07-08T09:28:52.806Z,1009.9
2017-07-08T09:30:03.318Z,1009.98
2017-07-08T09:31:13.590Z,1009.96
2017-07-08T09:32:23.865Z,1009.98
2017-07-08T09:33:33.812Z,1010.06
2017-07-08T09:34:44.091Z,1010.02
2017-07-08T09:35:54.622Z,1010.13
2017-07-08T09:37:04.894Z,1010.11
2017-07-08T09:38:15.171Z,1010.08
2017-07-08T09:39:25.455Z,1010.02
2017-07-08T09:40:35.721Z,1010.08
2017-07-08T09:41:46.252Z,1010
2017-07-08T09:42:56.533Z,1010.04
2017-07-08T09:44:06.474Z,1009.91
2017-07-08T09:45:16.736Z,1009.99
2017-07-08T09:46:26.694Z,1010.04
2017-07-08T09:47:37.226Z,1009.99
2017-07-08T09:48:47.194Z,1009.91
2017-07-08T09:49:57.468Z,1010
2017-07-08T09:51:07.746Z,1009.93
2017-07-08T09:52:17.702Z,1009.87
2017-07-08T09:53:27.894Z,1009.86
2017-07-08T09:54:38.169Z,1009.88
2017-07-08T09:55:48.465Z,1009.91
2017-07-08T09:56:58.752Z,1009.87
2017-07-08T09:58:09.025Z,1009.83
2017-07-08T09:59:18.938Z,1009.83
2017-07-08T10:00:29.215Z,1009.88
2017-07-08T10:01:39.483Z,1009.89
2017-07-08T10:02:49.742Z,1009.88
2017-07-08T10:03:59.691Z,1009.86
2017-07-08T10:05:10.207Z,1009.93
2017-07-08T10:06:20.487Z,1009.85
2017-07-08T10:07:30.767Z,1009.92
2017-07-08T10:08:40.729Z,1009.92
2017-07-08T10:09:50.687Z,1009.97
2017-07-08T10:11:01.193Z,1009.91
2017-07-08T10:12:11.482Z,1009.89
2017-07-08T10:13:21.779Z,1009.91
2017-07-08T10:14:32.042Z,1009.92
2017-07-08T10:15:42.007Z,1009.98
2017-07-08T10:16:52.217Z,1009.98
2017-07-08T10:18:02.483Z,1009.93
2017-07-08T10:19:12.753Z,1009.94
2017-07-08T10:20:23.034Z,1009.96
2017-07-08T10:21:32.665Z,1010.01
2017-07-08T10:22:42.868Z,1010.02
2017-07-08T10:23:53.150Z,1010.04
2017-07-08T10:25:03.418Z,1010.05
2017-07-08T10:26:13.690Z,1010.01
2017-07-08T10:27:23.705Z,1010.05
2017-07-08T10:28:34.228Z,1010.07
2017-07-08T10:29:44.522Z,1010.19
2017-07-08T10:30:54.483Z,1010.08
2017-07-08T10:32:04.446Z,1010.04
2017-07-08T10:33:14.708Z,1009.94
2017-07-08T10:34:25.231Z,1009.95
2017-07-08T10:35:35.218Z,1010.02
2017-07-08T10:36:45.507Z,1009.99
2017-07-08T10:37:55.488Z,1009.99
2017-07-08T10:39:05.452Z,1009.96
2017-07-08T10:40:15.976Z,1010.09
2017-07-08T10:41:25.939Z,1010.04
2017-07-08T10:42:35.974Z,1010.02
2017-07-08T10:43:46.259Z,1009.93
2017-07-08T10:44:56.546Z,1009.94
2017-07-08T10:46:07.072Z,1009.94
2017-07-08T10:47:17.362Z,1009.95
2017-07-08T10:48:27.635Z,1009.96
2017-07-08T10:49:37.901Z,1010.01
2017-07-08T10:50:47.556Z,1010.03
2017-07-08T10:51:58.098Z,1010.1
2017-07-08T10:53:08.383Z,1010.2
2017-07-08T10:54:18.688Z,1010.08
2017-07-08T10:55:28.645Z,1010.11
2017-07-08T10:56:38.613Z,1010.1
2017-07-08T10:57:49.123Z,1010.18
2017-07-08T10:58:59.398Z,1010.12
2017-07-08T11:00:09.369Z,1009.99
2017-07-08T11:01:19.637Z,1010.03
2017-07-08T11:02:29.597Z,1010.05
2017-07-08T11:03:40.157Z,1010.04
2017-07-08T11:04:50.113Z,1010.07
2017-07-08T11:06:00.360Z,1010.09
2017-07-08T11:07:10.635Z,1010.37
2017-07-08T11:08:20.921Z,1010.22
2017-07-08T11:09:31.455Z,1010.1
2017-07-08T11:10:41.749Z,1010.14
2017-07-08T11:11:52.045Z,1010.11
2017-07-08T11:13:02.347Z,1010.11
2017-07-08T11:14:12.625Z,1010.13
2017-07-08T11:15:23.204Z,1010.1
2017-07-08T11:16:33.494Z,1010.19
2017-07-08T11:17:43.754Z,1010.13
2017-07-08T11:18:53.800Z,1010.15
2017-07-08T11:20:04.091Z,1010.14
2017-07-08T11:21:14.619Z,1010.03
2017-07-08T11:22:24.583Z,1010.09
2017-07-08T11:23:34.851Z,1010.16
2017-07-08T11:24:45.152Z,1010.1
2017-07-08T11:25:55.444Z,1010.21
2017-07-08T11:27:05.971Z,1010.1
2017-07-08T11:28:15.926Z,1010.16
2017-07-08T11:29:26.203Z,1010.18
2017-07-08T11:30:36.476Z,1010.26
2017-07-08T11:31:46.754Z,1010.22
2017-07-08T11:32:57.274Z,1010.17
2017-07-08T11:34:07.577Z,1010.15
2017-07-08T11:35:17.537Z,1010.3
2017-07-08T11:36:27.810Z,1010.16
2017-07-08T11:37:37.458Z,1010.25
2017-07-08T11:38:47.987Z,1010.4
2017-07-08T11:39:58.259Z,1010.35
2017-07-08T11:41:08.574Z,1010.28
2017-07-08T11:42:18.862Z,1010.32
2017-07-08T11:43:28.520Z,1010.3
2017-07-08T11:44:39.033Z,1010.22
2017-07-08T11:45:49.306Z,1010.31
2017-07-08T11:46:59.597Z,1010.35
2017-07-08T11:48:09.883Z,1010.3
2017-07-08T11:49:20.172Z,1010.34
2017-07-08T11:50:30.694Z,1010.28
2017-07-08T11:51:40.976Z,1010.32
2017-07-08T11:52:51.243Z,1010.39
2017-07-08T11:54:01.521Z,1010.36
2017-07-08T11:55:11.782Z,1010.18
2017-07-08T11:56:22.008Z,1010.3
2017-07-08T11:57:32.303Z,1010.39
2017-07-08T11:58:42.648Z,1010.33
2017-07-08T11:59:52.953Z,1010.37
2017-07-08T12:01:03.240Z,1010.35
2017-07-08T12:02:13.750Z,1010.42
2017-07-08T12:03:24.039Z,1010.3
2017-07-08T12:04:34.317Z,1010.25
2017-07-08T12:05:44.296Z,1010.5
2017-07-08T12:06:54.603Z,1010.35
2017-07-08T12:08:05.121Z,1010.3
2017-07-08T12:09:15.083Z,1010.33
2017-07-08T12:10:25.043Z,1010.37
2017-07-08T12:11:35.340Z,1010.36
2017-07-08T12:12:45.300Z,1010.4
2017-07-08T12:13:55.825Z,1010.31
2017-07-08T12:15:06.097Z,1010.33
2017-07-08T12:16:16.377Z,1010.25
2017-07-08T12:17:26.336Z,1010.25
2017-07-08T12:18:36.552Z,1010.33
2017-07-08T12:19:46.764Z,1010.27
2017-07-08T12:20:56.713Z,1010.29
2017-07-08T12:22:07.002Z,1010.33
2017-07-08T12:23:17.294Z,1010.36
2017-07-08T12:24:27.276Z,1010.18
2017-07-08T12:25:37.807Z,1010.34
2017-07-08T12:26:48.084Z,1010.16
2017-07-08T12:27:58.351Z,1010.14
2017-07-08T12:29:08.316Z,1010.23
2017-07-08T12:30:18.591Z,1010.14
2017-07-08T12:31:29.111Z,1010.28
2017-07-08T12:32:39.378Z,1010.22
2017-07-08T12:33:49.662Z,1010.13
2017-07-08T12:34:59.963Z,1010.14
2017-07-08T12:36:10.238Z,1010.23
2017-07-08T12:37:20.451Z,1010.22
2017-07-08T12:38:30.723Z,1010.23
2017-07-08T12:39:40.685Z,1010.28
2017-07-08T12:40:50.976Z,1010.22
2017-07-08T12:42:01.267Z,1010.33
2017-07-08T12:43:11.804Z,1010.21
2017-07-08T12:44:22.085Z,1010.16
2017-07-08T12:45:32.362Z,1010.41
2017-07-08T12:46:42.328Z,1010.26
2017-07-08T12:47:52.604Z,1010.37
2017-07-08T12:49:02.831Z,1010.38
2017-07-08T12:50:12.797Z,1010.31
2017-07-08T12:51:23.067Z,1010.27
2017-07-08T12:52:33.355Z,1010.25
2017-07-08T12:53:43.627Z,1010.21
2017-07-08T12:54:54.162Z,1010.22
2017-07-08T12:56:04.144Z,1010.25
2017-07-08T12:57:14.114Z,1010.18
2017-07-08T12:58:24.394Z,1010.19
2017-07-08T12:59:34.354Z,1010.04
2017-07-08T13:00:44.880Z,1010.17
2017-07-08T13:01:54.858Z,1010.22
2017-07-08T13:03:05.131Z,1010.19
2017-07-08T13:04:14.777Z,1010.26
2017-07-08T13:05:25.065Z,1010.18
2017-07-08T13:06:35.587Z,1010.17
2017-07-08T13:07:45.880Z,1010.09
2017-07-08T13:08:56.159Z,1010.19
2017-07-08T13:10:06.438Z,1010.18
2017-07-08T13:11:16.722Z,1010.08
2017-07-08T13:12:27.265Z,1010.13
2017-07-08T13:13:37.546Z,1010.21
2017-07-08T13:14:47.509Z,1010.16
2017-07-08T13:15:57.467Z,1010.3
2017-07-08T13:17:07.436Z,1010.18
2017-07-08T13:18:17.986Z,1010.25
2017-07-08T13:19:27.967Z,1010.15
2017-07-08T13:20:38.233Z,1010.15
2017-07-08T13:21:48.512Z,1010.14
2017-07-08T13:22:58.803Z,1010.08
2017-07-08T13:24:09.335Z,1010.14
2017-07-08T13:25:19.641Z,1010.1
2017-07-08T13:26:29.943Z,1010.19
2017-07-08T13:27:40.232Z,1010.25
2017-07-08T13:28:50.193Z,1010.26
2017-07-08T13:30:00.733Z,1010.08
2017-07-08T13:31:11.009Z,1010.15
2017-07-08T13:32:21.308Z,1010.09
2017-07-08T13:33:31.596Z,1010.14
2017-07-08T13:34:41.886Z,1010.12
2017-07-08T13:35:52.425Z,1010.1
2017-07-08T13:37:02.703Z,1010.14
2017-07-08T13:38:12.682Z,1010.12
2017-07-08T13:39:22.964Z,1010.03
2017-07-08T13:40:33.272Z,1010.02
2017-07-08T13:41:43.801Z,1010.02
2017-07-08T13:42:54.136Z,1010.07
2017-07-08T13:44:04.419Z,1010.05
2017-07-08T13:45:14.395Z,1010.1
2017-07-08T13:46:24.380Z,1009.98
2017-07-08T13:47:34.940Z,1009.97
2017-07-08T13:48:44.901Z,1009.97
2017-07-08T13:49:54.845Z,1009.97
2017-07-08T13:51:05.113Z,1010.05
2017-07-08T13:52:15.403Z,1009.94
2017-07-08T13:53:25.929Z,1010.03
2017-07-08T13:54:36.215Z,1009.99
2017-07-08T13:55:46.519Z,1009.91
2017-07-08T13:56:56.818Z,1009.87
2017-07-08T13:58:06.790Z,1009.9
2017-07-08T13:59:17.326Z,1009.94
2017-07-08T14:00:27.605Z,1009.9
2017-07-08T14:01:37.894Z,1009.78
2017-07-08T14:02:48.188Z,1009.79
2017-07-08T14:03:58.495Z,1009.72
2017-07-08T14:05:09.039Z,1009.8
2017-07-08T14:06:19.333Z,1009.88
2017-07-08T14:07:28.985Z,1009.89
2017-07-08T14:08:39.270Z,1009.79
2017-07-08T14:09:49.548Z,1009.83
2017-07-08T14:10:59.763Z,1009.85
2017-07-08T14:12:10.111Z,1009.92
2017-07-08T14:13:20.397Z,1009.8